sensor_id;sensor_type;location;lat;lon;timestamp;temperature;humidity
22224;DHT22;11281;52.194;21.006;2022-08-30T00:00:18;14.70;99.90
22224;DHT22;11281;52.194;21.006;2022-08-30T00:05:00;14.50;99.90
22224;DHT22;11281;52.194;21.006;2022-08-30T00:09:22;14.60;99.90
22224;DHT22;11281;52.194;21.006;2022-08-30T00:13:45;14.60;99.90
22224;DHT22;11281;52.194;21.006;2022-08-30T00:18:08;14.60;99.90
22224;DHT22;11281;52.194;21.006;2022-08-30T00:22:30;14.70;99.90
22224;DHT22;11281;52.194;21.006;2022-08-30T00:26:53;14.80;99.90
22224;DHT22;11281;52.194;21.006;2022-08-30T00:31:15;14.80;99.90
22224;DHT22;11281;52.194;21.006;2022-08-30T00:35:37;14.80;99.90
22224;DHT22;11281;52.194;21.006;2022-08-30T00:40:00;14.80;99.90
22224;DHT22;11281;52.194;21.006;2022-08-30T00:44:22;14.80;99.90
22224;DHT22;11281;52.194;21.006;2022-08-30T00:48:47;14.80;99.90
22224;DHT22;11281;52.194;21.006;2022-08-30T00:53:19;14.80;99.90
22224;DHT22;11281;52.194;21.006;2022-08-30T00:57:45;14.70;99.90
22224;DHT22;11281;52.194;21.006;2022-08-30T01:02:10;14.60;99.90
22224;DHT22;11281;52.194;21.006;2022-08-30T01:06:32;14.50;99.90
22224;DHT22;11281;52.194;21.006;2022-08-30T01:10:55;14.50;99.90
22224;DHT22;11281;52.194;21.006;2022-08-30T01:15:18;14.50;99.90
22224;DHT22;11281;52.194;21.006;2022-08-30T01:19:56;14.50;99.90
22224;DHT22;11281;52.194;21.006;2022-08-30T01:24:20;14.40;99.90
22224;DHT22;11281;52.194;21.006;2022-08-30T01:28:45;14.40;99.90
22224;DHT22;11281;52.194;21.006;2022-08-30T01:33:10;14.40;99.90
22224;DHT22;11281;52.194;21.006;2022-08-30T01:37:32;14.30;99.90
22224;DHT22;11281;52.194;21.006;2022-08-30T01:41:55;14.20;99.90
22224;DHT22;11281;52.194;21.006;2022-08-30T01:46:19;14.20;99.90
22224;DHT22;11281;52.194;21.006;2022-08-30T01:50:43;14.10;99.90
22224;DHT22;11281;52.194;21.006;2022-08-30T01:55:06;14.10;99.90
22224;DHT22;11281;52.194;21.006;2022-08-30T01:59:28;14.00;99.90
22224;DHT22;11281;52.194;21.006;2022-08-30T02:03:51;14.10;99.90
22224;DHT22;11281;52.194;21.006;2022-08-30T02:08:15;14.10;99.90
22224;DHT22;11281;52.194;21.006;2022-08-30T02:12:36;14.00;99.90
22224;DHT22;11281;52.194;21.006;2022-08-30T02:16:58;14.00;99.90
22224;DHT22;11281;52.194;21.006;2022-08-30T02:21:20;14.00;99.90
22224;DHT22;11281;52.194;21.006;2022-08-30T02:25:43;14.10;99.90
22224;DHT22;11281;52.194;21.006;2022-08-30T02:30:07;14.10;99.90
22224;DHT22;11281;52.194;21.006;2022-08-30T02:34:30;14.00;99.90
22224;DHT22;11281;52.194;21.006;2022-08-30T02:38:52;14.00;99.90
22224;DHT22;11281;52.194;21.006;2022-08-30T02:43:15;14.00;99.90
22224;DHT22;11281;52.194;21.006;2022-08-30T02:47:37;13.90;99.90
22224;DHT22;11281;52.194;21.006;2022-08-30T02:51:59;13.90;99.90
22224;DHT22;11281;52.194;21.006;2022-08-30T02:56:21;13.90;99.90
22224;DHT22;11281;52.194;21.006;2022-08-30T03:00:43;13.90;99.90
22224;DHT22;11281;52.194;21.006;2022-08-30T03:05:06;14.00;99.90
22224;DHT22;11281;52.194;21.006;2022-08-30T03:09:28;14.00;99.90
22224;DHT22;11281;52.194;21.006;2022-08-30T03:13:50;13.90;99.90
22224;DHT22;11281;52.194;21.006;2022-08-30T03:18:12;14.00;99.90
22224;DHT22;11281;52.194;21.006;2022-08-30T03:22:34;14.00;99.90
22224;DHT22;11281;52.194;21.006;2022-08-30T03:26:56;14.00;99.90
22224;DHT22;11281;52.194;21.006;2022-08-30T03:31:18;14.20;99.90
22224;DHT22;11281;52.194;21.006;2022-08-30T03:35:40;14.40;99.90
22224;DHT22;11281;52.194;21.006;2022-08-30T03:40:04;14.50;99.90
22224;DHT22;11281;52.194;21.006;2022-08-30T03:44:27;14.70;99.90
22224;DHT22;11281;52.194;21.006;2022-08-30T03:48:49;14.80;99.90
22224;DHT22;11281;52.194;21.006;2022-08-30T03:53:12;14.80;99.90
22224;DHT22;11281;52.194;21.006;2022-08-30T03:57:34;14.70;99.90
22224;DHT22;11281;52.194;21.006;2022-08-30T04:01:56;14.80;99.90
22224;DHT22;11281;52.194;21.006;2022-08-30T04:06:19;14.80;99.90
22224;DHT22;11281;52.194;21.006;2022-08-30T04:10:41;14.80;99.90
22224;DHT22;11281;52.194;21.006;2022-08-30T04:15:03;14.80;99.90
22224;DHT22;11281;52.194;21.006;2022-08-30T04:19:26;14.80;99.90
22224;DHT22;11281;52.194;21.006;2022-08-30T04:23:48;14.90;99.90
22224;DHT22;11281;52.194;21.006;2022-08-30T04:28:10;14.80;99.90
22224;DHT22;11281;52.194;21.006;2022-08-30T04:32:34;14.90;99.90
22224;DHT22;11281;52.194;21.006;2022-08-30T04:36:56;14.90;99.90
22224;DHT22;11281;52.194;21.006;2022-08-30T04:41:18;15.00;99.90
22224;DHT22;11281;52.194;21.006;2022-08-30T04:45:41;15.10;99.90
22224;DHT22;11281;52.194;21.006;2022-08-30T04:50:04;15.10;99.90
22224;DHT22;11281;52.194;21.006;2022-08-30T04:54:30;15.10;99.90
22224;DHT22;11281;52.194;21.006;2022-08-30T04:58:53;15.30;99.90
22224;DHT22;11281;52.194;21.006;2022-08-30T05:03:15;15.30;99.90
22224;DHT22;11281;52.194;21.006;2022-08-30T05:07:38;15.50;99.90
22224;DHT22;11281;52.194;21.006;2022-08-30T05:11:59;15.70;99.90
22224;DHT22;11281;52.194;21.006;2022-08-30T05:16:21;15.70;99.90
22224;DHT22;11281;52.194;21.006;2022-08-30T05:20:43;15.70;99.90
22224;DHT22;11281;52.194;21.006;2022-08-30T05:25:05;15.70;99.90
22224;DHT22;11281;52.194;21.006;2022-08-30T05:29:27;15.70;99.90
22224;DHT22;11281;52.194;21.006;2022-08-30T05:33:52;15.70;99.90
22224;DHT22;11281;52.194;21.006;2022-08-30T05:38:15;15.90;99.90
22224;DHT22;11281;52.194;21.006;2022-08-30T05:42:37;16.20;99.90
22224;DHT22;11281;52.194;21.006;2022-08-30T05:47:01;16.30;99.90
22224;DHT22;11281;52.194;21.006;2022-08-30T05:51:25;16.20;99.90
22224;DHT22;11281;52.194;21.006;2022-08-30T05:55:48;16.20;99.90
22224;DHT22;11281;52.194;21.006;2022-08-30T06:00:14;16.30;99.90
22224;DHT22;11281;52.194;21.006;2022-08-30T06:04:38;16.20;99.90
22224;DHT22;11281;52.194;21.006;2022-08-30T06:09:00;16.50;99.90
22224;DHT22;11281;52.194;21.006;2022-08-30T06:13:23;16.60;99.90
22224;DHT22;11281;52.194;21.006;2022-08-30T06:17:46;16.60;99.90
22224;DHT22;11281;52.194;21.006;2022-08-30T06:22:08;16.60;99.90
22224;DHT22;11281;52.194;21.006;2022-08-30T06:26:30;16.50;99.90
22224;DHT22;11281;52.194;21.006;2022-08-30T06:30:52;16.60;99.90
22224;DHT22;11281;52.194;21.006;2022-08-30T06:35:14;16.80;99.90
22224;DHT22;11281;52.194;21.006;2022-08-30T06:39:36;16.60;99.90
22224;DHT22;11281;52.194;21.006;2022-08-30T06:44:00;16.90;99.90
22224;DHT22;11281;52.194;21.006;2022-08-30T06:48:23;17.10;99.90
22224;DHT22;11281;52.194;21.006;2022-08-30T06:52:45;17.20;99.90
22224;DHT22;11281;52.194;21.006;2022-08-30T06:57:07;17.20;99.90
22224;DHT22;11281;52.194;21.006;2022-08-30T07:01:28;17.40;99.90
22224;DHT22;11281;52.194;21.006;2022-08-30T07:05:50;17.50;99.90
22224;DHT22;11281;52.194;21.006;2022-08-30T07:10:13;17.40;99.90
22224;DHT22;11281;52.194;21.006;2022-08-30T07:14:36;17.40;99.90
22224;DHT22;11281;52.194;21.006;2022-08-30T07:18:58;17.40;99.90
22224;DHT22;11281;52.194;21.006;2022-08-30T07:23:20;17.60;99.90
22224;DHT22;11281;52.194;21.006;2022-08-30T07:27:42;17.60;99.90
22224;DHT22;11281;52.194;21.006;2022-08-30T07:32:06;17.70;99.90
22224;DHT22;11281;52.194;21.006;2022-08-30T07:36:28;17.90;99.90
22224;DHT22;11281;52.194;21.006;2022-08-30T07:40:50;18.00;99.90
22224;DHT22;11281;52.194;21.006;2022-08-30T07:45:12;17.90;99.90
22224;DHT22;11281;52.194;21.006;2022-08-30T07:49:34;17.60;99.90
22224;DHT22;11281;52.194;21.006;2022-08-30T07:53:57;17.80;99.90
22224;DHT22;11281;52.194;21.006;2022-08-30T07:58:19;17.90;99.90
22224;DHT22;11281;52.194;21.006;2022-08-30T08:02:41;18.00;99.90
22224;DHT22;11281;52.194;21.006;2022-08-30T08:07:03;18.00;99.90
22224;DHT22;11281;52.194;21.006;2022-08-30T08:11:25;18.20;99.90
22224;DHT22;11281;52.194;21.006;2022-08-30T08:15:48;18.10;99.90
22224;DHT22;11281;52.194;21.006;2022-08-30T08:20:10;17.90;99.90
22224;DHT22;11281;52.194;21.006;2022-08-30T08:24:32;18.00;99.90
22224;DHT22;11281;52.194;21.006;2022-08-30T08:28:54;18.00;99.90
22224;DHT22;11281;52.194;21.006;2022-08-30T08:33:17;18.30;99.90
22224;DHT22;11281;52.194;21.006;2022-08-30T08:37:40;18.10;99.90
22224;DHT22;11281;52.194;21.006;2022-08-30T08:47:24;18.00;99.90
22224;DHT22;11281;52.194;21.006;2022-08-30T08:51:47;17.90;99.90
22224;DHT22;11281;52.194;21.006;2022-08-30T08:56:27;18.00;99.90
22224;DHT22;11281;52.194;21.006;2022-08-30T09:00:49;18.30;99.90
22224;DHT22;11281;52.194;21.006;2022-08-30T09:05:17;18.60;99.90
22224;DHT22;11281;52.194;21.006;2022-08-30T09:09:41;18.60;99.90
22224;DHT22;11281;52.194;21.006;2022-08-30T09:14:09;18.70;99.90
22224;DHT22;11281;52.194;21.006;2022-08-30T09:18:44;18.30;99.90
22224;DHT22;11281;52.194;21.006;2022-08-30T09:27:35;19.00;99.90
22224;DHT22;11281;52.194;21.006;2022-08-30T09:31:57;19.20;99.90
22224;DHT22;11281;52.194;21.006;2022-08-30T09:36:27;19.20;99.90
22224;DHT22;11281;52.194;21.006;2022-08-30T09:40:55;19.30;99.90
22224;DHT22;11281;52.194;21.006;2022-08-30T09:45:28;19.20;99.90
22224;DHT22;11281;52.194;21.006;2022-08-30T09:50:13;18.90;99.90
22224;DHT22;11281;52.194;21.006;2022-08-30T09:59:52;18.70;99.90
22224;DHT22;11281;52.194;21.006;2022-08-30T10:09:06;19.10;99.90
22224;DHT22;11281;52.194;21.006;2022-08-30T10:22:44;19.10;99.90
22224;DHT22;11281;52.194;21.006;2022-08-30T10:27:54;19.20;99.90
22224;DHT22;11281;52.194;21.006;2022-08-30T10:32:33;19.10;99.90
22224;DHT22;11281;52.194;21.006;2022-08-30T10:37:10;19.30;99.90
22224;DHT22;11281;52.194;21.006;2022-08-30T10:41:38;19.20;99.90
22224;DHT22;11281;52.194;21.006;2022-08-30T10:46:07;19.70;99.90
22224;DHT22;11281;52.194;21.006;2022-08-30T10:50:36;20.10;99.90
22224;DHT22;11281;52.194;21.006;2022-08-30T10:55:18;20.10;99.90
22224;DHT22;11281;52.194;21.006;2022-08-30T10:59:45;20.50;99.90
22224;DHT22;11281;52.194;21.006;2022-08-30T11:09:04;20.80;99.90
22224;DHT22;11281;52.194;21.006;2022-08-30T11:13:35;20.60;99.90
22224;DHT22;11281;52.194;21.006;2022-08-30T11:22:32;20.70;99.90
22224;DHT22;11281;52.194;21.006;2022-08-30T11:27:00;20.70;99.90
22224;DHT22;11281;52.194;21.006;2022-08-30T11:35:46;21.10;99.90
22224;DHT22;11281;52.194;21.006;2022-08-30T11:44:41;20.80;99.90
22224;DHT22;11281;52.194;21.006;2022-08-30T11:58:47;21.10;99.90
22224;DHT22;11281;52.194;21.006;2022-08-30T12:07:58;21.40;99.90
22224;DHT22;11281;52.194;21.006;2022-08-30T12:16:47;21.60;99.90
22224;DHT22;11281;52.194;21.006;2022-08-30T12:21:31;21.70;99.90
22224;DHT22;11281;52.194;21.006;2022-08-30T12:30:38;21.20;99.90
22224;DHT22;11281;52.194;21.006;2022-08-30T12:35:03;21.00;99.90
22224;DHT22;11281;52.194;21.006;2022-08-30T12:39:30;20.80;99.90
22224;DHT22;11281;52.194;21.006;2022-08-30T12:43:56;20.80;99.90
22224;DHT22;11281;52.194;21.006;2022-08-30T12:48:20;20.80;99.90
22224;DHT22;11281;52.194;21.006;2022-08-30T12:52:44;20.80;99.90
22224;DHT22;11281;52.194;21.006;2022-08-30T12:57:07;20.70;99.90
22224;DHT22;11281;52.194;21.006;2022-08-30T13:01:34;20.70;99.90
22224;DHT22;11281;52.194;21.006;2022-08-30T13:05:57;20.70;99.90
22224;DHT22;11281;52.194;21.006;2022-08-30T13:10:19;20.70;99.90
22224;DHT22;11281;52.194;21.006;2022-08-30T13:14:42;20.80;99.90
22224;DHT22;11281;52.194;21.006;2022-08-30T13:19:29;20.60;99.90
22224;DHT22;11281;52.194;21.006;2022-08-30T13:24:01;20.50;99.90
22224;DHT22;11281;52.194;21.006;2022-08-30T13:28:25;20.30;99.90
22224;DHT22;11281;52.194;21.006;2022-08-30T13:32:47;20.30;99.90
22224;DHT22;11281;52.194;21.006;2022-08-30T13:37:14;20.20;99.90
22224;DHT22;11281;52.194;21.006;2022-08-30T13:41:39;20.20;99.90
22224;DHT22;11281;52.194;21.006;2022-08-30T13:46:01;20.30;99.90
22224;DHT22;11281;52.194;21.006;2022-08-30T13:50:22;20.50;99.90
22224;DHT22;11281;52.194;21.006;2022-08-30T13:54:44;20.30;99.90
22224;DHT22;11281;52.194;21.006;2022-08-30T13:59:06;19.60;99.90
22224;DHT22;11281;52.194;21.006;2022-08-30T14:03:28;19.30;99.90
22224;DHT22;11281;52.194;21.006;2022-08-30T14:07:50;19.40;99.90
22224;DHT22;11281;52.194;21.006;2022-08-30T14:12:11;19.30;99.90
22224;DHT22;11281;52.194;21.006;2022-08-30T14:16:34;19.20;99.90
22224;DHT22;11281;52.194;21.006;2022-08-30T14:20:57;19.10;99.90
22224;DHT22;11281;52.194;21.006;2022-08-30T14:25:19;18.90;99.90
22224;DHT22;11281;52.194;21.006;2022-08-30T14:29:41;18.90;99.90
22224;DHT22;11281;52.194;21.006;2022-08-30T14:34:04;19.00;99.90
22224;DHT22;11281;52.194;21.006;2022-08-30T14:38:26;18.90;99.90
22224;DHT22;11281;52.194;21.006;2022-08-30T14:42:48;18.80;99.90
22224;DHT22;11281;52.194;21.006;2022-08-30T14:47:10;18.80;99.90
22224;DHT22;11281;52.194;21.006;2022-08-30T14:51:31;18.80;99.90
22224;DHT22;11281;52.194;21.006;2022-08-30T14:55:53;18.70;99.90
22224;DHT22;11281;52.194;21.006;2022-08-30T15:00:15;18.70;99.90
22224;DHT22;11281;52.194;21.006;2022-08-30T15:04:37;18.80;99.90
22224;DHT22;11281;52.194;21.006;2022-08-30T15:08:58;19.10;99.90
22224;DHT22;11281;52.194;21.006;2022-08-30T15:13:20;19.00;99.90
22224;DHT22;11281;52.194;21.006;2022-08-30T15:17:42;18.90;99.90
22224;DHT22;11281;52.194;21.006;2022-08-30T15:22:05;18.90;99.90
22224;DHT22;11281;52.194;21.006;2022-08-30T15:26:28;18.80;99.90
22224;DHT22;11281;52.194;21.006;2022-08-30T15:30:50;18.90;99.90
22224;DHT22;11281;52.194;21.006;2022-08-30T15:35:11;18.90;99.90
22224;DHT22;11281;52.194;21.006;2022-08-30T15:39:33;18.90;99.90
22224;DHT22;11281;52.194;21.006;2022-08-30T15:43:56;18.90;99.90
22224;DHT22;11281;52.194;21.006;2022-08-30T15:48:18;19.20;99.90
22224;DHT22;11281;52.194;21.006;2022-08-30T15:52:40;19.10;99.90
22224;DHT22;11281;52.194;21.006;2022-08-30T15:57:02;19.10;99.90
22224;DHT22;11281;52.194;21.006;2022-08-30T16:01:24;19.10;99.90
22224;DHT22;11281;52.194;21.006;2022-08-30T16:05:46;18.90;99.90
22224;DHT22;11281;52.194;21.006;2022-08-30T16:10:08;18.80;99.90
22224;DHT22;11281;52.194;21.006;2022-08-30T16:14:30;18.70;99.90
22224;DHT22;11281;52.194;21.006;2022-08-30T16:18:53;18.70;99.90
22224;DHT22;11281;52.194;21.006;2022-08-30T16:23:15;18.70;99.90
22224;DHT22;11281;52.194;21.006;2022-08-30T16:27:36;18.60;99.90
22224;DHT22;11281;52.194;21.006;2022-08-30T16:32:03;18.60;99.90
22224;DHT22;11281;52.194;21.006;2022-08-30T16:36:25;18.50;99.90
22224;DHT22;11281;52.194;21.006;2022-08-30T16:40:48;18.40;99.90
22224;DHT22;11281;52.194;21.006;2022-08-30T16:45:10;18.30;99.90
22224;DHT22;11281;52.194;21.006;2022-08-30T16:49:32;18.30;99.90
22224;DHT22;11281;52.194;21.006;2022-08-30T16:53:55;18.30;99.90
22224;DHT22;11281;52.194;21.006;2022-08-30T16:58:18;18.30;99.90
22224;DHT22;11281;52.194;21.006;2022-08-30T17:02:41;18.20;99.90
22224;DHT22;11281;52.194;21.006;2022-08-30T17:07:03;18.20;99.90
22224;DHT22;11281;52.194;21.006;2022-08-30T17:11:25;18.00;99.90
22224;DHT22;11281;52.194;21.006;2022-08-30T17:15:47;17.80;99.90
22224;DHT22;11281;52.194;21.006;2022-08-30T17:20:09;17.70;99.90
22224;DHT22;11281;52.194;21.006;2022-08-30T17:24:31;17.60;99.90
22224;DHT22;11281;52.194;21.006;2022-08-30T17:28:53;17.60;99.90
22224;DHT22;11281;52.194;21.006;2022-08-30T17:33:15;17.50;99.90
22224;DHT22;11281;52.194;21.006;2022-08-30T17:37:36;17.50;99.90
22224;DHT22;11281;52.194;21.006;2022-08-30T17:41:58;17.40;99.90
22224;DHT22;11281;52.194;21.006;2022-08-30T17:46:20;17.40;99.90
22224;DHT22;11281;52.194;21.006;2022-08-30T17:50:42;17.30;99.90
22224;DHT22;11281;52.194;21.006;2022-08-30T17:55:05;17.30;99.90
22224;DHT22;11281;52.194;21.006;2022-08-30T17:59:27;17.20;99.90
22224;DHT22;11281;52.194;21.006;2022-08-30T18:03:49;17.20;99.90
22224;DHT22;11281;52.194;21.006;2022-08-30T18:08:12;17.10;99.90
22224;DHT22;11281;52.194;21.006;2022-08-30T18:12:34;17.10;99.90
22224;DHT22;11281;52.194;21.006;2022-08-30T18:16:56;17.10;99.90
22224;DHT22;11281;52.194;21.006;2022-08-30T18:21:18;17.10;99.90
22224;DHT22;11281;52.194;21.006;2022-08-30T18:25:41;17.00;99.90
22224;DHT22;11281;52.194;21.006;2022-08-30T18:30:07;17.00;99.90
22224;DHT22;11281;52.194;21.006;2022-08-30T18:34:29;17.00;99.90
22224;DHT22;11281;52.194;21.006;2022-08-30T18:38:51;16.90;99.90
22224;DHT22;11281;52.194;21.006;2022-08-30T18:43:13;16.90;99.90
22224;DHT22;11281;52.194;21.006;2022-08-30T18:47:35;16.90;99.90
22224;DHT22;11281;52.194;21.006;2022-08-30T18:51:57;16.80;99.90
22224;DHT22;11281;52.194;21.006;2022-08-30T18:56:19;16.80;99.90
22224;DHT22;11281;52.194;21.006;2022-08-30T19:00:41;16.80;99.90
22224;DHT22;11281;52.194;21.006;2022-08-30T19:05:04;16.70;99.90
22224;DHT22;11281;52.194;21.006;2022-08-30T19:09:26;16.70;99.90
22224;DHT22;11281;52.194;21.006;2022-08-30T19:13:48;16.70;99.90
22224;DHT22;11281;52.194;21.006;2022-08-30T19:18:10;16.70;99.90
22224;DHT22;11281;52.194;21.006;2022-08-30T19:22:32;16.60;99.90
22224;DHT22;11281;52.194;21.006;2022-08-30T19:26:54;16.60;99.90
22224;DHT22;11281;52.194;21.006;2022-08-30T19:31:15;16.60;99.90
22224;DHT22;11281;52.194;21.006;2022-08-30T19:35:37;16.50;99.90
22224;DHT22;11281;52.194;21.006;2022-08-30T19:40:00;16.50;99.90
22224;DHT22;11281;52.194;21.006;2022-08-30T19:44:23;16.50;99.90
22224;DHT22;11281;52.194;21.006;2022-08-30T19:48:45;16.50;99.90
22224;DHT22;11281;52.194;21.006;2022-08-30T19:53:07;16.50;99.90
22224;DHT22;11281;52.194;21.006;2022-08-30T19:57:29;16.40;99.90
22224;DHT22;11281;52.194;21.006;2022-08-30T20:01:51;16.50;99.90
22224;DHT22;11281;52.194;21.006;2022-08-30T20:06:13;16.50;99.90
22224;DHT22;11281;52.194;21.006;2022-08-30T20:10:36;16.50;99.90
22224;DHT22;11281;52.194;21.006;2022-08-30T20:18:42;16.40;99.90
22224;DHT22;11281;52.194;21.006;2022-08-30T20:23:05;16.40;99.90
22224;DHT22;11281;52.194;21.006;2022-08-30T20:27:26;16.40;99.90
22224;DHT22;11281;52.194;21.006;2022-08-30T20:31:48;16.40;99.90
22224;DHT22;11281;52.194;21.006;2022-08-30T20:36:10;16.30;99.90
22224;DHT22;11281;52.194;21.006;2022-08-30T20:40:33;16.40;99.90
22224;DHT22;11281;52.194;21.006;2022-08-30T20:44:55;16.30;99.90
22224;DHT22;11281;52.194;21.006;2022-08-30T20:49:19;16.30;99.90
22224;DHT22;11281;52.194;21.006;2022-08-30T20:53:42;16.20;99.90
22224;DHT22;11281;52.194;21.006;2022-08-30T20:58:04;16.20;99.90
22224;DHT22;11281;52.194;21.006;2022-08-30T21:02:26;16.10;99.90
22224;DHT22;11281;52.194;21.006;2022-08-30T21:06:47;16.10;99.90
22224;DHT22;11281;52.194;21.006;2022-08-30T21:11:09;16.00;99.90
22224;DHT22;11281;52.194;21.006;2022-08-30T21:15:31;16.00;99.90
22224;DHT22;11281;52.194;21.006;2022-08-30T21:19:53;15.80;99.90
22224;DHT22;11281;52.194;21.006;2022-08-30T21:24:15;15.80;99.90
22224;DHT22;11281;52.194;21.006;2022-08-30T21:28:37;15.80;99.90
22224;DHT22;11281;52.194;21.006;2022-08-30T21:33:04;15.80;99.90
22224;DHT22;11281;52.194;21.006;2022-08-30T21:37:27;15.70;99.90
22224;DHT22;11281;52.194;21.006;2022-08-30T21:41:50;15.60;99.90
22224;DHT22;11281;52.194;21.006;2022-08-30T21:46:15;15.60;99.90
22224;DHT22;11281;52.194;21.006;2022-08-30T21:50:38;15.60;99.90
22224;DHT22;11281;52.194;21.006;2022-08-30T21:55:01;15.50;99.90
22224;DHT22;11281;52.194;21.006;2022-08-30T21:59:23;15.50;99.90
22224;DHT22;11281;52.194;21.006;2022-08-30T22:03:45;15.40;99.90
22224;DHT22;11281;52.194;21.006;2022-08-30T22:08:07;15.30;99.90
22224;DHT22;11281;52.194;21.006;2022-08-30T22:12:29;15.10;99.90
22224;DHT22;11281;52.194;21.006;2022-08-30T22:16:51;15.00;99.90
22224;DHT22;11281;52.194;21.006;2022-08-30T22:21:15;15.00;99.90
22224;DHT22;11281;52.194;21.006;2022-08-30T22:25:38;14.80;99.90
22224;DHT22;11281;52.194;21.006;2022-08-30T22:30:00;14.60;99.90
22224;DHT22;11281;52.194;21.006;2022-08-30T22:34:22;14.60;99.90
22224;DHT22;11281;52.194;21.006;2022-08-30T22:38:43;14.50;99.90
22224;DHT22;11281;52.194;21.006;2022-08-30T22:43:05;14.40;99.90
22224;DHT22;11281;52.194;21.006;2022-08-30T22:47:27;14.40;99.90
22224;DHT22;11281;52.194;21.006;2022-08-30T22:51:49;14.30;99.90
22224;DHT22;11281;52.194;21.006;2022-08-30T22:56:20;14.20;99.90
22224;DHT22;11281;52.194;21.006;2022-08-30T23:00:44;14.10;99.90
22224;DHT22;11281;52.194;21.006;2022-08-30T23:05:06;14.00;99.90
22224;DHT22;11281;52.194;21.006;2022-08-30T23:09:29;13.90;99.90
22224;DHT22;11281;52.194;21.006;2022-08-30T23:13:52;13.70;99.90
22224;DHT22;11281;52.194;21.006;2022-08-30T23:18:13;13.60;99.90
22224;DHT22;11281;52.194;21.006;2022-08-30T23:22:35;13.60;99.90
22224;DHT22;11281;52.194;21.006;2022-08-30T23:26:57;13.50;99.90
22224;DHT22;11281;52.194;21.006;2022-08-30T23:31:37;13.60;99.90
22224;DHT22;11281;52.194;21.006;2022-08-30T23:36:17;13.50;99.90
22224;DHT22;11281;52.194;21.006;2022-08-30T23:40:57;13.40;99.90
22224;DHT22;11281;52.194;21.006;2022-08-30T23:45:38;13.40;99.90
22224;DHT22;11281;52.194;21.006;2022-08-30T23:50:18;13.50;99.90
22224;DHT22;11281;52.194;21.006;2022-08-30T23:54:59;13.50;99.90
22224;DHT22;11281;52.194;21.006;2022-08-30T23:59:39;13.60;99.90
